createdAt,value
2018-04-30T04:09:56.573Z,144
2018-04-30T04:10:22.068Z,144
2018-04-30T04:10:47.562Z,152
2018-04-30T04:11:13.059Z,152
2018-04-30T04:11:38.566Z,152
2018-04-30T04:12:04.057Z,148
2018-04-30T04:12:29.600Z,152
2018-04-30T04:12:55.093Z,164
2018-04-30T04:13:20.544Z,172
2018-04-30T04:13:46.057Z,172
2018-04-30T04:14:11.539Z,172
2018-04-30T04:14:37.019Z,176
2018-04-30T04:15:02.510Z,188
2018-04-30T04:15:28.019Z,188
2018-04-30T04:15:53.525Z,184
2018-04-30T04:16:19.013Z,184
2018-04-30T04:16:44.551Z,196
2018-04-30T04:17:10.055Z,192
2018-04-30T04:17:35.515Z,188
2018-04-30T04:18:00.980Z,192
2018-04-30T04:18:26.489Z,200
2018-04-30T04:18:52.011Z,204
2018-04-30T04:19:17.483Z,200
2018-04-30T04:19:42.992Z,208
2018-04-30T04:20:08.474Z,224
2018-04-30T04:20:34.052Z,216
2018-04-30T04:20:59.539Z,224
2018-04-30T04:21:25.036Z,240
2018-04-30T04:21:50.511Z,240
2018-04-30T04:22:15.992Z,252
2018-04-30T04:22:41.509Z,272
2018-04-30T04:23:06.973Z,276
2018-04-30T04:23:32.457Z,292
2018-04-30T04:23:57.945Z,300
2018-04-30T04:24:23.441Z,296
2018-04-30T04:24:48.909Z,312
2018-04-30T04:25:14.385Z,328
2018-04-30T04:25:39.882Z,340
2018-04-30T04:26:05.373Z,352
2018-04-30T04:26:30.853Z,368
2018-04-30T04:26:56.368Z,384
2018-04-30T04:27:21.850Z,396
2018-04-30T04:27:47.382Z,400
2018-04-30T04:28:12.916Z,408
2018-04-30T04:28:38.377Z,432
2018-04-30T04:29:42.005Z,464
2018-04-30T04:30:07.469Z,480
2018-04-30T04:30:33.006Z,492
2018-04-30T04:30:58.466Z,504
2018-04-30T04:31:23.913Z,512
2018-04-30T04:31:49.393Z,532
2018-04-30T04:32:14.855Z,544
2018-04-30T04:32:40.305Z,536
2018-04-30T04:33:05.779Z,528
2018-04-30T04:33:31.473Z,584
2018-04-30T04:33:57.037Z,608
2018-04-30T04:34:22.443Z,624
2018-04-30T04:34:47.954Z,620
2018-04-30T04:35:13.431Z,604
2018-04-30T04:35:38.929Z,592
2018-04-30T04:36:04.425Z,572
2018-04-30T04:36:29.874Z,580
2018-04-30T04:36:55.357Z,572
2018-04-30T04:37:20.799Z,564
2018-04-30T04:37:46.264Z,556
2018-04-30T04:38:11.732Z,556
2018-04-30T04:38:37.240Z,532
2018-04-30T04:39:02.681Z,580
2018-04-30T04:39:28.146Z,608
2018-04-30T04:39:53.606Z,628
2018-04-30T04:40:19.117Z,640
2018-04-30T04:40:44.582Z,660
2018-04-30T04:41:10.074Z,664
2018-04-30T04:41:35.545Z,696
2018-04-30T04:42:01.030Z,784
2018-04-30T04:42:26.517Z,848
2018-04-30T04:42:52.007Z,936
2018-04-30T04:43:17.637Z,1100
2018-04-30T04:43:43.150Z,1252
2018-04-30T04:44:08.655Z,1276
2018-04-30T04:44:34.154Z,1172
2018-04-30T04:44:59.670Z,1196
2018-04-30T04:45:25.136Z,1076
2018-04-30T04:45:50.630Z,1004
2018-04-30T04:46:16.133Z,916
2018-04-30T04:46:41.691Z,1000
2018-04-30T04:47:07.215Z,992
2018-04-30T04:47:32.865Z,1120
2018-04-30T04:47:58.351Z,1228
2018-04-30T04:48:24.090Z,1384
2018-04-30T04:48:49.684Z,1236
2018-04-30T04:49:15.215Z,1212
2018-04-30T04:49:40.822Z,1108
2018-04-30T04:50:06.381Z,952
2018-04-30T04:50:31.952Z,880
2018-04-30T04:50:57.451Z,920
2018-04-30T04:51:22.969Z,916
2018-04-30T04:51:48.452Z,1020
2018-04-30T04:52:14.006Z,1044
2018-04-30T04:52:39.513Z,1072
2018-04-30T04:53:05.213Z,1108
2018-04-30T04:53:30.773Z,956
2018-04-30T04:53:56.373Z,1016
2018-04-30T04:54:21.928Z,1208
2018-04-30T04:54:47.426Z,1332
2018-04-30T04:55:13.027Z,1240
2018-04-30T04:55:38.569Z,1128
2018-04-30T04:56:04.118Z,1128
2018-04-30T04:56:29.594Z,1176
2018-04-30T04:56:55.108Z,1040
2018-04-30T04:57:20.587Z,1060
2018-04-30T04:57:46.282Z,1112
2018-04-30T04:58:11.690Z,1244
2018-04-30T04:58:37.158Z,1344
2018-04-30T04:59:02.662Z,1460
2018-04-30T05:00:15.948Z,1160
2018-04-30T05:00:41.466Z,1092
2018-04-30T05:01:06.968Z,1068
2018-04-30T05:01:32.461Z,1088
2018-04-30T05:01:57.965Z,1156
2018-04-30T05:02:23.506Z,1168
2018-04-30T05:02:48.977Z,1196
2018-04-30T05:03:14.472Z,1500
2018-04-30T05:03:40.006Z,1624
2018-04-30T05:04:05.523Z,1548
2018-04-30T05:04:31.008Z,1552
2018-04-30T05:04:56.495Z,1580
2018-04-30T05:05:21.984Z,1592
2018-04-30T05:05:47.495Z,1712
2018-04-30T05:06:12.981Z,1648
2018-04-30T05:06:38.554Z,1428
2018-04-30T05:07:04.030Z,1396
2018-04-30T05:07:29.564Z,1448
2018-04-30T05:07:55.052Z,1400
2018-04-30T05:08:20.552Z,1424
2018-04-30T05:08:46.039Z,1320
2018-04-30T05:09:11.557Z,1304
2018-04-30T05:09:37.025Z,1268
2018-04-30T05:10:02.501Z,1248
2018-04-30T05:10:27.999Z,1320
2018-04-30T05:10:53.535Z,1380
2018-04-30T05:11:18.988Z,1480
2018-04-30T05:11:44.471Z,1460
2018-04-30T05:12:09.979Z,1380
2018-04-30T05:12:35.561Z,1384
2018-04-30T05:13:01.116Z,1396
2018-04-30T05:13:26.641Z,1228
2018-04-30T05:13:52.147Z,1116
2018-04-30T05:14:17.581Z,1132
2018-04-30T05:14:43.145Z,1300
2018-04-30T05:15:08.628Z,1408
2018-04-30T05:15:34.158Z,1376
2018-04-30T05:15:59.654Z,1636
2018-04-30T05:16:25.145Z,1528
2018-04-30T05:16:50.660Z,1420
2018-04-30T05:17:16.117Z,1372
2018-04-30T05:17:41.593Z,1356
2018-04-30T05:18:07.093Z,1412
2018-04-30T05:18:32.605Z,1384
2018-04-30T05:18:58.102Z,1444
2018-04-30T05:19:23.629Z,1740
2018-04-30T05:19:49.134Z,1628
2018-04-30T05:20:14.693Z,1544
2018-04-30T05:20:40.276Z,1628
2018-04-30T05:21:06.085Z,1616
2018-04-30T05:21:31.853Z,1620
2018-04-30T05:21:57.369Z,1692
2018-04-30T05:22:22.836Z,1764
2018-04-30T05:22:48.307Z,1664
2018-04-30T05:23:14.278Z,1712
2018-04-30T05:23:39.781Z,1788
2018-04-30T05:24:05.282Z,1580
2018-04-30T05:24:30.779Z,1632
2018-04-30T05:24:56.288Z,1632
2018-04-30T05:25:21.764Z,1816
2018-04-30T05:25:47.318Z,2052
2018-04-30T05:26:12.948Z,1844
2018-04-30T05:26:38.490Z,1608
2018-04-30T05:27:03.990Z,1756
2018-04-30T05:27:29.496Z,1952
2018-04-30T05:27:54.992Z,2000
2018-04-30T05:28:20.480Z,2156
2018-04-30T05:28:46.330Z,2304
2018-04-30T05:29:12.056Z,2400
2018-04-30T05:29:37.542Z,2212
2018-04-30T05:30:03.025Z,2324
2018-04-30T05:30:28.544Z,2376
2018-04-30T05:30:54.049Z,2540
2018-04-30T05:31:19.631Z,2352
2018-04-30T05:31:45.110Z,2236
2018-04-30T05:32:10.923Z,2312
2018-04-30T05:32:37.381Z,2276
2018-04-30T05:33:02.260Z,2088
2018-04-30T05:33:27.824Z,2012
2018-04-30T05:33:53.400Z,1888
2018-04-30T05:34:18.855Z,1752
2018-04-30T05:34:44.482Z,1392
2018-04-30T05:35:10.031Z,1316
2018-04-30T05:35:35.540Z,1264
2018-04-30T05:36:01.144Z,1264
2018-04-30T05:36:26.646Z,1328
2018-04-30T05:36:52.137Z,1284
2018-04-30T05:37:17.619Z,1216
2018-04-30T05:37:43.100Z,1228
2018-04-30T05:38:08.749Z,1228
2018-04-30T05:38:34.498Z,1348
2018-04-30T05:38:59.992Z,1404
2018-04-30T05:39:25.491Z,1440
2018-04-30T05:39:50.960Z,1504
2018-04-30T05:40:16.434Z,1620
2018-04-30T05:40:41.904Z,1716
2018-04-30T05:41:07.465Z,1676
2018-04-30T05:41:33.053Z,1556
2018-04-30T05:41:58.669Z,1532
2018-04-30T05:42:24.159Z,1420
2018-04-30T05:42:49.662Z,1456
2018-04-30T05:43:15.179Z,1596
2018-04-30T05:43:40.679Z,1724
2018-04-30T05:44:06.174Z,1900
2018-04-30T05:44:31.675Z,2116
2018-04-30T05:44:57.167Z,1840
2018-04-30T05:45:22.684Z,1816
2018-04-30T05:45:48.176Z,2148
2018-04-30T05:46:13.657Z,2256
2018-04-30T05:46:39.148Z,2044
2018-04-30T05:47:04.679Z,2300
2018-04-30T05:47:30.197Z,2224
2018-04-30T05:47:55.713Z,2180
2018-04-30T05:48:21.231Z,2204
2018-04-30T05:48:46.692Z,1940
2018-04-30T05:49:12.193Z,1728
2018-04-30T05:49:37.677Z,1840
2018-04-30T05:50:03.146Z,1988
2018-04-30T05:50:28.674Z,1992
2018-04-30T05:50:54.161Z,1960
2018-04-30T05:51:19.651Z,1784
2018-04-30T05:51:45.206Z,1688
2018-04-30T05:52:10.710Z,1728
2018-04-30T05:52:36.181Z,1620
2018-04-30T05:53:01.691Z,1620
2018-04-30T05:53:27.186Z,1660
2018-04-30T05:53:52.702Z,1708
2018-04-30T05:54:18.200Z,1488
2018-04-30T05:54:43.714Z,1352
2018-04-30T05:55:09.231Z,1248
2018-04-30T05:55:34.742Z,1200
2018-04-30T05:56:00.231Z,1456
2018-04-30T05:56:25.713Z,1460
2018-04-30T05:56:51.253Z,1324
2018-04-30T05:57:16.748Z,1224
2018-04-30T05:57:42.236Z,1300
2018-04-30T05:58:07.781Z,1364
2018-04-30T05:58:33.257Z,1356
2018-04-30T05:58:58.789Z,1236
2018-04-30T05:59:24.380Z,1328
2018-04-30T05:59:49.888Z,1468
2018-04-30T06:00:15.444Z,1336
2018-04-30T06:00:40.893Z,1288
2018-04-30T06:01:06.394Z,1244
2018-04-30T06:01:31.881Z,1228
2018-04-30T06:01:57.378Z,1228
2018-04-30T06:02:22.884Z,1268
2018-04-30T06:02:48.377Z,1356
2018-04-30T06:03:13.901Z,1352
2018-04-30T06:03:39.403Z,1268
2018-04-30T06:04:04.895Z,1396
2018-04-30T06:04:30.380Z,1332
2018-04-30T06:04:55.868Z,1260
2018-04-30T06:05:21.401Z,1320
2018-04-30T06:05:46.930Z,1300
2018-04-30T06:06:12.497Z,1228
2018-04-30T06:06:38.065Z,1140
2018-04-30T06:07:03.574Z,1108
2018-04-30T06:07:29.122Z,1212
2018-04-30T06:07:54.591Z,1232
2018-04-30T06:08:20.091Z,1132
2018-04-30T06:08:45.573Z,1232
2018-04-30T06:09:11.061Z,1304
2018-04-30T06:09:36.580Z,1272
2018-04-30T06:10:02.093Z,1372
2018-04-30T06:10:27.591Z,1304
2018-04-30T06:10:53.108Z,1472
2018-04-30T06:11:18.610Z,1540
2018-04-30T06:11:44.102Z,1476
2018-04-30T06:12:09.709Z,1524
2018-04-30T06:12:35.119Z,1452
2018-04-30T06:13:00.630Z,1460
2018-04-30T06:13:26.110Z,1304
2018-04-30T06:13:51.615Z,1396
2018-04-30T06:14:17.125Z,1448
2018-04-30T06:14:42.675Z,1596
2018-04-30T06:15:08.151Z,1572
2018-04-30T06:15:33.625Z,1412
2018-04-30T06:15:59.106Z,1584
2018-04-30T06:16:24.609Z,1556
2018-04-30T06:16:50.098Z,1684
2018-04-30T06:17:15.599Z,1464
2018-04-30T06:17:41.102Z,1584
2018-04-30T06:18:06.557Z,1508
2018-04-30T06:18:32.039Z,1340
2018-04-30T06:18:57.506Z,1516
2018-04-30T06:19:22.996Z,1480
2018-04-30T06:19:48.484Z,1368
2018-04-30T06:20:13.981Z,1304
2018-04-30T06:20:39.497Z,1284
2018-04-30T06:21:05.000Z,1408
2018-04-30T06:21:30.481Z,1304
2018-04-30T06:21:55.954Z,1104
2018-04-30T06:22:21.479Z,1252
2018-04-30T06:22:46.971Z,1156
2018-04-30T06:23:12.478Z,1020
2018-04-30T06:23:38.012Z,1092
2018-04-30T06:24:03.533Z,1296
2018-04-30T06:24:29.031Z,1208
2018-04-30T06:24:54.536Z,1140
2018-04-30T06:25:20.031Z,1012
2018-04-30T06:25:45.572Z,980
2018-04-30T06:26:10.997Z,932
2018-04-30T06:26:36.508Z,992
2018-04-30T06:27:01.990Z,1104
2018-04-30T06:27:27.478Z,1044
2018-04-30T06:27:52.961Z,1004
2018-04-30T06:28:18.478Z,1168
2018-04-30T06:28:43.995Z,1252
2018-04-30T06:29:09.438Z,1160
2018-04-30T06:29:34.965Z,1256
2018-04-30T06:30:00.475Z,1132
2018-04-30T06:30:25.975Z,1276
2018-04-30T06:30:51.436Z,1308
2018-04-30T06:31:16.930Z,1288
2018-04-30T06:31:42.423Z,1340
2018-04-30T06:32:07.919Z,1636
2018-04-30T06:32:33.408Z,1660
2018-04-30T06:32:58.923Z,1356
2018-04-30T06:33:24.384Z,1352
2018-04-30T06:33:49.921Z,1200
2018-04-30T06:34:15.416Z,1444
2018-04-30T06:34:40.910Z,1784
2018-04-30T06:35:06.397Z,1684
2018-04-30T06:35:31.910Z,1604
2018-04-30T06:35:57.401Z,1776
2018-04-30T06:36:22.932Z,2176
2018-04-30T06:36:48.413Z,1812
2018-04-30T06:37:13.901Z,2096
2018-04-30T06:37:39.380Z,2076
2018-04-30T06:38:04.862Z,2500
2018-04-30T06:38:30.338Z,1888
2018-04-30T06:38:55.811Z,1568
2018-04-30T06:39:21.322Z,1580
2018-04-30T06:39:46.823Z,1660
2018-04-30T06:40:12.312Z,1360
2018-04-30T06:40:37.815Z,1468
2018-04-30T06:41:03.384Z,1220
2018-04-30T06:41:28.852Z,1160
2018-04-30T06:42:31.979Z,1224
2018-04-30T06:42:57.472Z,1376
2018-04-30T06:43:22.977Z,1716
2018-04-30T06:43:48.473Z,1540
2018-04-30T06:44:13.973Z,1392
2018-04-30T06:44:39.481Z,1288
2018-04-30T06:45:04.970Z,1500
2018-04-30T06:45:30.482Z,1632
2018-04-30T06:45:55.941Z,1572
2018-04-30T06:46:21.422Z,1596
2018-04-30T06:46:46.923Z,1576
2018-04-30T06:47:12.426Z,1620
2018-04-30T06:47:37.990Z,1308
2018-04-30T06:48:03.443Z,1416
2018-04-30T06:48:28.923Z,1356
2018-04-30T06:48:54.523Z,1604
2018-04-30T06:49:20.025Z,1528
2018-04-30T06:49:45.512Z,1984
2018-04-30T06:50:11.012Z,2208
2018-04-30T06:50:36.530Z,1864
2018-04-30T06:51:02.018Z,1716
2018-04-30T06:51:27.552Z,2080
2018-04-30T06:51:53.045Z,1808
2018-04-30T06:52:18.578Z,2384
2018-04-30T06:52:44.061Z,2584
2018-04-30T06:53:09.554Z,2444
2018-04-30T06:53:35.242Z,2520
2018-04-30T06:54:00.559Z,1960
2018-04-30T06:54:26.054Z,2088
2018-04-30T06:54:51.536Z,2176
2018-04-30T06:55:17.026Z,2296
2018-04-30T06:55:42.564Z,1844
2018-04-30T06:56:08.115Z,1492
2018-04-30T06:56:33.627Z,1956
2018-04-30T06:56:59.129Z,1828
2018-04-30T06:57:24.660Z,1592
2018-04-30T06:57:50.147Z,1488
2018-04-30T06:58:15.639Z,1612
2018-04-30T06:58:41.144Z,1684
2018-04-30T06:59:06.614Z,1672
2018-04-30T06:59:32.143Z,1624
2018-04-30T06:59:57.638Z,1620
2018-04-30T07:00:23.208Z,1644
2018-04-30T07:00:48.613Z,1584
2018-04-30T07:01:14.120Z,1400
2018-04-30T07:01:39.596Z,1676
2018-04-30T07:02:05.104Z,2068
2018-04-30T07:02:30.603Z,2020
2018-04-30T07:02:56.084Z,1552
2018-04-30T07:03:21.578Z,1824
2018-04-30T07:03:47.093Z,1556
2018-04-30T07:04:12.597Z,1608
2018-04-30T07:04:38.105Z,1292
2018-04-30T07:05:03.599Z,1096
2018-04-30T07:05:29.076Z,1012
2018-04-30T07:05:54.576Z,1116
2018-04-30T07:06:57.679Z,1380
2018-04-30T07:07:23.189Z,1072
2018-04-30T07:07:48.686Z,828
2018-04-30T07:08:14.191Z,1004
2018-04-30T07:08:39.688Z,844
2018-04-30T07:09:05.202Z,780
2018-04-30T07:09:30.694Z,844
2018-04-30T07:09:56.177Z,908
2018-04-30T07:10:21.669Z,1420
2018-04-30T07:10:47.142Z,2016
2018-04-30T07:11:12.671Z,2728
2018-04-30T07:11:38.166Z,3704
2018-04-30T07:12:03.666Z,4752
2018-04-30T07:12:29.155Z,5080
2018-04-30T07:12:54.711Z,5948
2018-04-30T07:13:20.255Z,6904
2018-04-30T07:13:45.761Z,6908
2018-04-30T07:14:11.219Z,5612
2018-04-30T07:14:36.708Z,5680
2018-04-30T07:15:02.215Z,6444
2018-04-30T07:15:27.699Z,7208
2018-04-30T07:15:53.191Z,7516
2018-04-30T07:16:18.777Z,7828
2018-04-30T07:16:44.269Z,7796
2018-04-30T07:17:09.752Z,6992
2018-04-30T07:17:35.232Z,7956
2018-04-30T07:18:00.750Z,7580
2018-04-30T07:18:26.318Z,6748
2018-04-30T07:18:51.826Z,6184
2018-04-30T07:19:17.411Z,5768
2018-04-30T07:19:42.938Z,5412
2018-04-30T07:20:08.526Z,5376
2018-04-30T07:20:33.993Z,4528
2018-04-30T07:20:59.610Z,4784
2018-04-30T07:21:25.144Z,5348
2018-04-30T07:21:50.720Z,5500
2018-04-30T07:22:16.279Z,5092
2018-04-30T07:22:41.844Z,5448
2018-04-30T07:23:07.412Z,6028
2018-04-30T07:23:32.929Z,4908
2018-04-30T07:23:58.439Z,6060
2018-04-30T07:24:23.937Z,5132
2018-04-30T07:24:49.499Z,4900
2018-04-30T07:25:15.052Z,5312
2018-04-30T07:26:18.713Z,5744
2018-04-30T07:26:44.196Z,5880
2018-04-30T07:27:09.683Z,6344
2018-04-30T07:27:35.259Z,7324
2018-04-30T07:28:00.691Z,7548
2018-04-30T07:28:26.230Z,8212
2018-04-30T07:28:51.772Z,8676
2018-04-30T07:29:17.286Z,8584
2018-04-30T07:29:42.860Z,8384
2018-04-30T07:30:08.361Z,8388
2018-04-30T07:30:33.925Z,8912
2018-04-30T07:30:59.488Z,9240
2018-04-30T07:31:25.005Z,8892
2018-04-30T07:31:50.568Z,9368
2018-04-30T07:32:16.099Z,8528
2018-04-30T07:32:41.725Z,8656
2018-04-30T07:33:07.285Z,9464
2018-04-30T07:33:32.854Z,9876
2018-04-30T07:33:58.400Z,10116
2018-04-30T07:34:24.061Z,9144
2018-04-30T07:34:49.599Z,8832
2018-04-30T07:35:15.277Z,10240
2018-04-30T07:35:41.063Z,10048
2018-04-30T07:36:06.647Z,9664
2018-04-30T07:36:32.285Z,9076
2018-04-30T07:36:57.786Z,9380
2018-04-30T07:37:23.327Z,9652
2018-04-30T07:37:48.873Z,9552
2018-04-30T07:38:14.368Z,9564
2018-04-30T07:38:39.856Z,9840
2018-04-30T07:39:05.477Z,8984
2018-04-30T07:39:30.942Z,7280
2018-04-30T07:39:56.538Z,6348
2018-04-30T07:40:22.198Z,5096
2018-04-30T07:40:47.810Z,4092
2018-04-30T07:41:13.449Z,3464
2018-04-30T07:41:38.997Z,3056
2018-04-30T07:42:04.629Z,2512
2018-04-30T07:42:30.260Z,2184
2018-04-30T07:42:55.977Z,2096
2018-04-30T07:43:21.642Z,1784
2018-04-30T07:43:47.229Z,1864
2018-04-30T07:44:12.772Z,1800
2018-04-30T07:44:38.331Z,1716
2018-04-30T07:45:04.017Z,1844
2018-04-30T07:45:29.570Z,2352
2018-04-30T07:45:55.175Z,2444
2018-04-30T07:46:20.764Z,2268
2018-04-30T07:46:46.317Z,2124
2018-04-30T07:47:11.815Z,2292
2018-04-30T07:47:37.351Z,2964
2018-04-30T07:48:02.983Z,2796
2018-04-30T07:48:28.489Z,2764
2018-04-30T07:48:54.033Z,2456
2018-04-30T07:49:19.549Z,2656
2018-04-30T07:49:45.052Z,2512
2018-04-30T07:50:10.607Z,2372
2018-04-30T07:50:36.048Z,2876
2018-04-30T07:51:01.654Z,3584
2018-04-30T07:51:27.351Z,4312
2018-04-30T07:51:52.948Z,4068
2018-04-30T07:52:18.448Z,3004
2018-04-30T07:52:43.960Z,2848
2018-04-30T07:53:09.528Z,2944
2018-04-30T07:53:35.035Z,2984
2018-04-30T07:54:00.692Z,3452
2018-04-30T07:54:26.263Z,3644
2018-04-30T07:54:51.809Z,3172
2018-04-30T07:55:17.368Z,2772
2018-04-30T07:55:42.949Z,3076
2018-04-30T07:56:08.616Z,3028
2018-04-30T07:56:34.094Z,2784
2018-04-30T07:56:59.681Z,3400
2018-04-30T07:57:25.232Z,3712
2018-04-30T07:57:50.864Z,3032
2018-04-30T07:58:16.415Z,3000
2018-04-30T07:58:41.938Z,4460
2018-04-30T07:59:07.530Z,4608
2018-04-30T07:59:33.071Z,3332
2018-04-30T07:59:58.643Z,2652
2018-04-30T08:00:24.152Z,2596
2018-04-30T08:00:49.746Z,3256
2018-04-30T08:01:15.241Z,2720
2018-04-30T08:01:40.868Z,2824
2018-04-30T08:02:06.536Z,3032
2018-04-30T08:02:32.300Z,2636
2018-04-30T08:02:57.914Z,3312
2018-04-30T08:03:23.515Z,3376
2018-04-30T08:03:49.200Z,3368
2018-04-30T08:04:14.864Z,3108
2018-04-30T08:04:40.346Z,2876
2018-04-30T08:05:05.984Z,2568
2018-04-30T08:05:31.593Z,2504
2018-04-30T08:05:57.281Z,2168
2018-04-30T08:06:22.822Z,1716
2018-04-30T08:06:48.493Z,1660
2018-04-30T08:07:14.043Z,1684
2018-04-30T08:07:39.611Z,1848
2018-04-30T08:08:05.239Z,1836
2018-04-30T08:08:30.913Z,1792
2018-04-30T08:08:56.573Z,1724
2018-04-30T08:09:22.168Z,1528
2018-04-30T08:09:47.747Z,1492
2018-04-30T08:10:13.397Z,1564
2018-04-30T08:10:38.985Z,1664
2018-04-30T08:11:04.603Z,1788
2018-04-30T08:11:30.153Z,1652
2018-04-30T08:11:55.733Z,1548
2018-04-30T08:12:21.344Z,1568
2018-04-30T08:12:46.843Z,1552
2018-04-30T08:13:12.384Z,1572
2018-04-30T08:13:38.123Z,1660
2018-04-30T08:14:03.696Z,1784
2018-04-30T08:14:29.341Z,1788
2018-04-30T08:14:55.181Z,2004
2018-04-30T08:15:20.661Z,2188
2018-04-30T08:16:24.395Z,2388
2018-04-30T08:16:49.919Z,2184
2018-04-30T08:17:15.441Z,1824
2018-04-30T08:17:41.140Z,1672
2018-04-30T08:18:06.638Z,1776
2018-04-30T08:18:32.207Z,1752
2018-04-30T08:18:57.690Z,1664
2018-04-30T08:19:23.198Z,1476
2018-04-30T08:19:48.793Z,1368
2018-04-30T08:20:14.436Z,1648
2018-04-30T08:20:39.991Z,1632
2018-04-30T08:21:05.549Z,1504
2018-04-30T08:21:31.115Z,1712
2018-04-30T08:21:56.496Z,1828
2018-04-30T08:22:21.988Z,1708
2018-04-30T08:22:47.504Z,1636
2018-04-30T08:23:12.983Z,1968
2018-04-30T08:23:38.508Z,1824
2018-04-30T08:24:04.250Z,1584
2018-04-30T08:24:29.613Z,1400
2018-04-30T08:24:55.080Z,1288
2018-04-30T08:25:20.602Z,1320
2018-04-30T08:25:46.099Z,1804
2018-04-30T08:26:11.588Z,2108
2018-04-30T08:26:37.085Z,2476
2018-04-30T08:27:02.599Z,2888
2018-04-30T08:27:28.089Z,2472
2018-04-30T08:27:53.607Z,2032
2018-04-30T08:28:19.100Z,1968
2018-04-30T08:28:44.604Z,1876
2018-04-30T08:29:10.133Z,1776
2018-04-30T08:29:35.643Z,1808
2018-04-30T08:30:01.126Z,1688
2018-04-30T08:30:26.615Z,1536
2018-04-30T08:30:52.133Z,1492
2018-04-30T08:31:17.651Z,1524
2018-04-30T08:31:43.144Z,1704
2018-04-30T08:32:51.372Z,1644
2018-04-30T08:33:16.919Z,1792
2018-04-30T08:33:42.390Z,1788
2018-04-30T08:34:07.900Z,2144
2018-04-30T08:35:26.887Z,2144
2018-04-30T08:35:52.404Z,2072
2018-04-30T08:36:17.898Z,2340
2018-04-30T08:36:43.416Z,2644
2018-04-30T08:37:08.855Z,2676
2018-04-30T08:37:34.360Z,2576
2018-04-30T08:37:59.876Z,2952
2018-04-30T08:38:25.436Z,3116
2018-04-30T08:38:50.963Z,3452
2018-04-30T08:39:16.448Z,4020
2018-04-30T08:39:42.045Z,4336
2018-04-30T08:40:07.552Z,4560
2018-04-30T08:40:33.148Z,4476
2018-04-30T08:40:58.558Z,3900
2018-04-30T08:41:24.066Z,3336
2018-04-30T08:41:49.546Z,2908
2018-04-30T08:42:15.030Z,3104
2018-04-30T08:42:40.542Z,2696
2018-04-30T08:43:06.028Z,2792
2018-04-30T08:43:31.552Z,3836
2018-04-30T08:43:57.014Z,3476
2018-04-30T08:44:22.546Z,3276
2018-04-30T08:44:48.046Z,3408
2018-04-30T08:45:13.537Z,3720
2018-04-30T08:45:39.047Z,3928
2018-04-30T08:46:04.625Z,4072
2018-04-30T08:46:30.139Z,4472
2018-04-30T08:46:55.657Z,5108
2018-04-30T08:47:21.164Z,5932
2018-04-30T08:47:46.666Z,5996
2018-04-30T08:48:12.250Z,6092
2018-04-30T08:48:37.838Z,5344
2018-04-30T08:49:03.315Z,4056
2018-04-30T08:49:28.887Z,4128
2018-04-30T08:49:54.374Z,4940
2018-04-30T08:50:19.925Z,5040
2018-04-30T08:50:45.429Z,4056
2018-04-30T08:51:10.927Z,2656
2018-04-30T08:51:36.445Z,1904
2018-04-30T08:52:01.984Z,2032
2018-04-30T08:52:27.524Z,2144
2018-04-30T08:52:53.150Z,1896
2018-04-30T08:53:18.697Z,1708
2018-04-30T08:53:44.312Z,1480
2018-04-30T08:54:09.857Z,1372
2018-04-30T08:54:35.354Z,1404
2018-04-30T08:55:00.878Z,1516
2018-04-30T08:55:26.407Z,1768
2018-04-30T08:55:51.898Z,1572
2018-04-30T08:56:17.408Z,1404
2018-04-30T08:56:42.921Z,1424
2018-04-30T08:57:08.418Z,1468
2018-04-30T08:57:33.921Z,1816
2018-04-30T08:57:59.401Z,1828
2018-04-30T08:58:24.904Z,2036
2018-04-30T08:58:50.410Z,2304
2018-04-30T08:59:15.880Z,3504
2018-04-30T08:59:41.391Z,4892
2018-04-30T09:00:06.891Z,5008
2018-04-30T09:00:32.451Z,6176
2018-04-30T09:00:57.901Z,6696
2018-04-30T09:01:23.401Z,6824
2018-04-30T09:01:48.943Z,7124
2018-04-30T09:02:14.412Z,6900
2018-04-30T09:02:39.914Z,7252
2018-04-30T09:03:05.374Z,7312
2018-04-30T09:03:30.865Z,7168
2018-04-30T09:03:56.382Z,7616
2018-04-30T09:04:21.888Z,8212
2018-04-30T09:04:47.393Z,8392
2018-04-30T09:05:12.895Z,8308
2018-04-30T09:05:38.370Z,8352
2018-04-30T09:06:03.868Z,8460
2018-04-30T09:06:29.386Z,8736
2018-04-30T09:06:54.865Z,8572
2018-04-30T09:07:20.338Z,8028
2018-04-30T09:07:45.801Z,7288
2018-04-30T09:08:11.255Z,7148
2018-04-30T09:08:36.752Z,6496
2018-04-30T09:09:02.278Z,6832
2018-04-30T09:09:27.767Z,7112
2018-04-30T09:09:53.292Z,7416
2018-04-30T09:10:18.776Z,7776
2018-04-30T09:10:44.300Z,8148
2018-04-30T09:11:58.083Z,9496
2018-04-30T09:12:23.579Z,9856
2018-04-30T09:12:49.077Z,9592
2018-04-30T09:13:14.545Z,10044
2018-04-30T09:13:40.039Z,10308
2018-04-30T09:14:05.528Z,10068
2018-04-30T09:14:31.046Z,10504
2018-04-30T09:14:56.570Z,10540
2018-04-30T09:15:22.028Z,10832
2018-04-30T09:15:47.603Z,11324
2018-04-30T09:16:13.016Z,11668
2018-04-30T09:16:38.518Z,11748
2018-04-30T09:17:04.082Z,12176
2018-04-30T09:17:29.744Z,12656
2018-04-30T09:17:55.528Z,12904
2018-04-30T09:18:21.159Z,12896
2018-04-30T09:18:46.922Z,12536
2018-04-30T09:19:12.629Z,12240
2018-04-30T09:19:38.233Z,11724
2018-04-30T09:20:03.961Z,11880
2018-04-30T09:20:29.561Z,11732
2018-04-30T09:20:55.149Z,11264
2018-04-30T09:21:20.728Z,11020
2018-04-30T09:21:46.417Z,10836
2018-04-30T09:22:11.974Z,10628
2018-04-30T09:22:37.658Z,10236
2018-04-30T09:23:03.375Z,10216
2018-04-30T09:23:29.053Z,9984
2018-04-30T09:23:54.828Z,9740
2018-04-30T09:24:20.328Z,9760
2018-04-30T09:24:45.971Z,9592
2018-04-30T09:25:11.705Z,9204
2018-04-30T09:25:37.368Z,8524
2018-04-30T09:26:03.100Z,7912
2018-04-30T09:26:28.708Z,7540
2018-04-30T09:26:54.293Z,7268
2018-04-30T09:27:20.103Z,7008
2018-04-30T09:27:45.753Z,6972
2018-04-30T09:28:11.400Z,7092
2018-04-30T09:28:37.116Z,7312
2018-04-30T09:29:02.825Z,7540
2018-04-30T09:29:28.421Z,7664
2018-04-30T09:29:54.051Z,7712
2018-04-30T09:30:19.704Z,7728
2018-04-30T09:30:45.250Z,7656
2018-04-30T09:31:10.746Z,7528
2018-04-30T09:31:36.238Z,7448
2018-04-30T09:32:01.685Z,7540
2018-04-30T09:32:27.172Z,7808
2018-04-30T09:32:52.691Z,8208
2018-04-30T09:33:18.139Z,8692
2018-04-30T09:33:43.612Z,9220
2018-04-30T09:34:09.077Z,9756
2018-04-30T09:34:34.596Z,10192
2018-04-30T09:35:00.103Z,10400
2018-04-30T09:35:25.581Z,10352
2018-04-30T09:35:51.076Z,10008
2018-04-30T09:36:16.577Z,9488
2018-04-30T09:36:42.059Z,9000
2018-04-30T09:37:07.588Z,8656
2018-04-30T09:37:33.089Z,8464
2018-04-30T09:37:58.581Z,8348
2018-04-30T09:38:24.087Z,8276
2018-04-30T09:38:49.746Z,8228
2018-04-30T09:39:15.308Z,8116
2018-04-30T09:39:40.903Z,7952
2018-04-30T09:40:06.384Z,7708
2018-04-30T09:40:31.845Z,7408
2018-04-30T09:40:57.350Z,7152
2018-04-30T09:41:22.846Z,6980
2018-04-30T09:41:48.370Z,6812
2018-04-30T09:42:13.822Z,6668
2018-04-30T09:42:39.329Z,6544
2018-04-30T09:43:04.817Z,6488
2018-04-30T09:43:30.305Z,6520
2018-04-30T09:43:55.806Z,6480
2018-04-30T09:44:21.285Z,6316
2018-04-30T09:44:46.833Z,5740
2018-04-30T09:45:12.329Z,5240
2018-04-30T09:45:37.814Z,5060
2018-04-30T09:46:03.414Z,5084
2018-04-30T09:46:28.877Z,5180
2018-04-30T09:46:54.361Z,5316
2018-04-30T09:47:19.850Z,5472
2018-04-30T09:47:45.343Z,5612
2018-04-30T09:48:10.841Z,5620
2018-04-30T09:48:36.304Z,5404
2018-04-30T09:49:50.126Z,6592
2018-04-30T09:50:16.092Z,7716
2018-04-30T09:50:41.764Z,8868
2018-04-30T09:51:07.429Z,9692
2018-04-30T09:51:33.033Z,10068
2018-04-30T09:51:58.500Z,9872
2018-04-30T09:52:24.018Z,9264
2018-04-30T09:52:49.493Z,8708
2018-04-30T09:53:14.981Z,8368
2018-04-30T09:53:40.446Z,8216
2018-04-30T09:54:05.928Z,8060
2018-04-30T09:54:31.433Z,7884
2018-04-30T09:54:56.916Z,7720
2018-04-30T09:55:22.421Z,7580
2018-04-30T09:55:47.914Z,7448
2018-04-30T09:56:13.383Z,7352
2018-04-30T09:56:38.885Z,7300
2018-04-30T09:57:04.426Z,7260
2018-04-30T09:57:29.915Z,7176